Waukon, Iowa
Current Conditions -  °F | °C
As of 8:35 AM on Saturday 22 Nov 2014 (Local Time) from KDEH Reporting Station
Moderate Fog Moderate Fog  
Wind Chill: 30°   Ceiling: 300
Heat Index: 36°   Visibility: 0.5mi
Dew Point: 36°   Wind: 7mph
Humidity: 100%   Direction: 190°S
Pressure: 29.84"   Gusts: NA
Location:  43.27°N, 91.48°W
Report Text: KDEH 221435Z AUTO 19006KT 1/2SM FG OVC003 02/02 A2984 RMK AO2
Loading
Personal Weather Stations






























Interactive Weather Map New forecast layout! Learn more

10-Day Weather Forecast

Advertisements
Track Severe Weather on mobile